Sabina, Illinois
Current Conditions -  °F | °C
As of 5:56 PM on Monday 24 Nov 2014 (Local Time) from KBMI Reporting Station
Broken Clouds Broken Clouds  
Wind Chill: 19°   Ceiling: 2300
Heat Index: 31°   Visibility: 10mi
Dew Point: 27°   Wind: 20mph
Humidity: 85%   Direction: 260°W
Pressure: 29.78"   Gusts: 29mph
Location:  40.382°N, 88.6331°W
Report Text: KBMI 242356Z 26017G25KT 10SM BKN023 M01/M03 A2978 RMK AO2 51042 60000 T10051027 10000 21011 BKN V OVC PK WND 25030/2313 SLP097
Loading
Personal Weather Stations






























Interactive Weather Map New forecast layout! Learn more

10-Day Weather Forecast

Advertisements
Track Severe Weather on mobile